sensor_id;sensor_type;location;lat;lon;timestamp;P1;durP1;ratioP1;P2;durP2;ratioP2
83487;SDS011;73424;49.994;8.184;2024-01-16T00:01:24;4.53;;;2.27;;
83487;SDS011;73424;49.994;8.184;2024-01-16T00:03:49;7.23;;;2.33;;
83487;SDS011;73424;49.994;8.184;2024-01-16T00:06:15;7.90;;;2.47;;
83487;SDS011;73424;49.994;8.184;2024-01-16T00:08:40;4.72;;;2.20;;
83487;SDS011;73424;49.994;8.184;2024-01-16T00:11:05;8.23;;;2.57;;
83487;SDS011;73424;49.994;8.184;2024-01-16T00:13:32;10.23;;;3.37;;
83487;SDS011;73424;49.994;8.184;2024-01-16T00:15:58;6.30;;;3.08;;
83487;SDS011;73424;49.994;8.184;2024-01-16T00:18:23;6.50;;;2.37;;
83487;SDS011;73424;49.994;8.184;2024-01-16T00:20:48;5.87;;;2.93;;
83487;SDS011;73424;49.994;8.184;2024-01-16T00:23:14;4.00;;;2.63;;
83487;SDS011;73424;49.994;8.184;2024-01-16T00:25:39;7.80;;;2.92;;
83487;SDS011;73424;49.994;8.184;2024-01-16T00:28:05;8.20;;;3.20;;
83487;SDS011;73424;49.994;8.184;2024-01-16T00:30:30;4.90;;;3.08;;
83487;SDS011;73424;49.994;8.184;2024-01-16T00:32:56;8.20;;;3.08;;
83487;SDS011;73424;49.994;8.184;2024-01-16T00:35:21;6.38;;;2.83;;
83487;SDS011;73424;49.994;8.184;2024-01-16T00:37:46;9.57;;;3.40;;
83487;SDS011;73424;49.994;8.184;2024-01-16T00:40:12;8.80;;;3.10;;
83487;SDS011;73424;49.994;8.184;2024-01-16T00:42:37;9.45;;;3.95;;
83487;SDS011;73424;49.994;8.184;2024-01-16T00:45:03;6.20;;;3.03;;
83487;SDS011;73424;49.994;8.184;2024-01-16T00:47:29;7.03;;;3.05;;
83487;SDS011;73424;49.994;8.184;2024-01-16T00:49:54;6.20;;;3.37;;
83487;SDS011;73424;49.994;8.184;2024-01-16T00:52:20;6.13;;;3.00;;
83487;SDS011;73424;49.994;8.184;2024-01-16T00:54:45;7.73;;;3.23;;
83487;SDS011;73424;49.994;8.184;2024-01-16T00:57:10;4.45;;;2.95;;
83487;SDS011;73424;49.994;8.184;2024-01-16T00:59:36;6.73;;;3.23;;
83487;SDS011;73424;49.994;8.184;2024-01-16T01:02:02;11.65;;;3.58;;
83487;SDS011;73424;49.994;8.184;2024-01-16T01:04:28;6.28;;;3.30;;
83487;SDS011;73424;49.994;8.184;2024-01-16T01:06:54;5.95;;;3.65;;
83487;SDS011;73424;49.994;8.184;2024-01-16T01:09:19;6.32;;;3.33;;
83487;SDS011;73424;49.994;8.184;2024-01-16T01:11:45;10.25;;;3.17;;
83487;SDS011;73424;49.994;8.184;2024-01-16T01:14:10;5.53;;;3.03;;
83487;SDS011;73424;49.994;8.184;2024-01-16T01:16:35;5.27;;;3.10;;
83487;SDS011;73424;49.994;8.184;2024-01-16T01:19:01;7.18;;;3.42;;
83487;SDS011;73424;49.994;8.184;2024-01-16T01:21:26;4.47;;;2.90;;
83487;SDS011;73424;49.994;8.184;2024-01-16T01:23:52;6.65;;;3.42;;
83487;SDS011;73424;49.994;8.184;2024-01-16T01:26:17;9.73;;;3.42;;
83487;SDS011;73424;49.994;8.184;2024-01-16T01:28:45;10.15;;;3.45;;
83487;SDS011;73424;49.994;8.184;2024-01-16T01:31:11;7.35;;;4.25;;
83487;SDS011;73424;49.994;8.184;2024-01-16T01:33:37;6.57;;;3.35;;
83487;SDS011;73424;49.994;8.184;2024-01-16T01:36:02;9.25;;;2.65;;
83487;SDS011;73424;49.994;8.184;2024-01-16T01:38:27;6.90;;;3.10;;
83487;SDS011;73424;49.994;8.184;2024-01-16T01:40:53;5.03;;;2.55;;
83487;SDS011;73424;49.994;8.184;2024-01-16T01:43:21;9.33;;;4.13;;
83487;SDS011;73424;49.994;8.184;2024-01-16T01:45:55;10.77;;;4.15;;
83487;SDS011;73424;49.994;8.184;2024-01-16T01:48:33;7.43;;;3.63;;
83487;SDS011;73424;49.994;8.184;2024-01-16T01:50:59;8.23;;;3.65;;
83487;SDS011;73424;49.994;8.184;2024-01-16T01:53:26;6.95;;;2.88;;
83487;SDS011;73424;49.994;8.184;2024-01-16T01:55:53;6.38;;;3.28;;
83487;SDS011;73424;49.994;8.184;2024-01-16T01:58:20;9.23;;;3.65;;
83487;SDS011;73424;49.994;8.184;2024-01-16T02:00:45;6.97;;;3.78;;
83487;SDS011;73424;49.994;8.184;2024-01-16T02:03:11;7.93;;;3.75;;
83487;SDS011;73424;49.994;8.184;2024-01-16T02:05:37;8.38;;;3.00;;
83487;SDS011;73424;49.994;8.184;2024-01-16T02:08:04;9.93;;;3.55;;
83487;SDS011;73424;49.994;8.184;2024-01-16T02:10:30;6.07;;;2.85;;
83487;SDS011;73424;49.994;8.184;2024-01-16T02:12:56;5.82;;;3.17;;
83487;SDS011;73424;49.994;8.184;2024-01-16T02:15:22;7.13;;;3.97;;
83487;SDS011;73424;49.994;8.184;2024-01-16T02:17:48;7.60;;;3.72;;
83487;SDS011;73424;49.994;8.184;2024-01-16T02:20:13;7.83;;;3.83;;
83487;SDS011;73424;49.994;8.184;2024-01-16T02:22:39;7.30;;;3.70;;
83487;SDS011;73424;49.994;8.184;2024-01-16T02:25:10;6.30;;;2.88;;
83487;SDS011;73424;49.994;8.184;2024-01-16T02:27:36;6.32;;;3.25;;
83487;SDS011;73424;49.994;8.184;2024-01-16T02:30:01;8.37;;;3.33;;
83487;SDS011;73424;49.994;8.184;2024-01-16T02:32:27;6.53;;;2.55;;
83487;SDS011;73424;49.994;8.184;2024-01-16T02:34:52;7.43;;;3.58;;
83487;SDS011;73424;49.994;8.184;2024-01-16T02:37:17;5.10;;;2.60;;
83487;SDS011;73424;49.994;8.184;2024-01-16T02:39:43;5.87;;;2.97;;
83487;SDS011;73424;49.994;8.184;2024-01-16T02:42:08;7.33;;;2.83;;
83487;SDS011;73424;49.994;8.184;2024-01-16T02:44:33;10.23;;;3.30;;
83487;SDS011;73424;49.994;8.184;2024-01-16T02:46:58;9.03;;;3.10;;
83487;SDS011;73424;49.994;8.184;2024-01-16T02:49:24;7.23;;;2.83;;
83487;SDS011;73424;49.994;8.184;2024-01-16T02:51:50;7.65;;;2.58;;
83487;SDS011;73424;49.994;8.184;2024-01-16T02:54:16;8.73;;;2.65;;
83487;SDS011;73424;49.994;8.184;2024-01-16T02:56:41;9.97;;;3.03;;
83487;SDS011;73424;49.994;8.184;2024-01-16T02:59:06;7.70;;;2.63;;
83487;SDS011;73424;49.994;8.184;2024-01-16T03:01:32;6.43;;;2.65;;
83487;SDS011;73424;49.994;8.184;2024-01-16T03:03:58;8.70;;;3.15;;
83487;SDS011;73424;49.994;8.184;2024-01-16T03:06:23;7.32;;;3.55;;
83487;SDS011;73424;49.994;8.184;2024-01-16T03:08:49;9.00;;;2.92;;
83487;SDS011;73424;49.994;8.184;2024-01-16T03:11:16;6.45;;;3.17;;
83487;SDS011;73424;49.994;8.184;2024-01-16T03:13:41;6.07;;;2.78;;
83487;SDS011;73424;49.994;8.184;2024-01-16T03:16:06;4.77;;;3.13;;
83487;SDS011;73424;49.994;8.184;2024-01-16T03:18:32;6.78;;;3.80;;
83487;SDS011;73424;49.994;8.184;2024-01-16T03:20:58;7.03;;;2.93;;
83487;SDS011;73424;49.994;8.184;2024-01-16T03:23:24;6.93;;;3.30;;
83487;SDS011;73424;49.994;8.184;2024-01-16T03:25:49;9.00;;;3.33;;
83487;SDS011;73424;49.994;8.184;2024-01-16T03:28:15;9.25;;;3.10;;
83487;SDS011;73424;49.994;8.184;2024-01-16T03:30:40;7.57;;;3.13;;
83487;SDS011;73424;49.994;8.184;2024-01-16T03:33:06;6.57;;;3.55;;
83487;SDS011;73424;49.994;8.184;2024-01-16T03:35:31;6.55;;;3.40;;
83487;SDS011;73424;49.994;8.184;2024-01-16T03:37:57;6.72;;;3.00;;
83487;SDS011;73424;49.994;8.184;2024-01-16T03:40:22;9.93;;;2.42;;
83487;SDS011;73424;49.994;8.184;2024-01-16T03:42:47;7.97;;;2.90;;
83487;SDS011;73424;49.994;8.184;2024-01-16T03:45:12;7.50;;;3.53;;
83487;SDS011;73424;49.994;8.184;2024-01-16T03:47:38;5.18;;;2.45;;
83487;SDS011;73424;49.994;8.184;2024-01-16T03:50:03;6.38;;;2.85;;
83487;SDS011;73424;49.994;8.184;2024-01-16T03:52:29;7.85;;;3.53;;
83487;SDS011;73424;49.994;8.184;2024-01-16T03:54:54;6.75;;;2.50;;
83487;SDS011;73424;49.994;8.184;2024-01-16T03:57:20;7.13;;;3.17;;
83487;SDS011;73424;49.994;8.184;2024-01-16T03:59:45;6.70;;;2.57;;
83487;SDS011;73424;49.994;8.184;2024-01-16T04:02:10;8.47;;;3.27;;
83487;SDS011;73424;49.994;8.184;2024-01-16T04:04:35;6.30;;;3.37;;
83487;SDS011;73424;49.994;8.184;2024-01-16T04:07:01;6.87;;;3.07;;
83487;SDS011;73424;49.994;8.184;2024-01-16T04:09:26;7.80;;;2.97;;
83487;SDS011;73424;49.994;8.184;2024-01-16T04:11:51;5.20;;;2.50;;
83487;SDS011;73424;49.994;8.184;2024-01-16T04:14:17;8.30;;;3.22;;
83487;SDS011;73424;49.994;8.184;2024-01-16T04:16:42;8.40;;;3.40;;
83487;SDS011;73424;49.994;8.184;2024-01-16T04:19:07;7.57;;;2.83;;
83487;SDS011;73424;49.994;8.184;2024-01-16T04:21:32;7.95;;;2.75;;
83487;SDS011;73424;49.994;8.184;2024-01-16T04:23:58;9.07;;;2.67;;
83487;SDS011;73424;49.994;8.184;2024-01-16T04:26:23;7.33;;;3.50;;
83487;SDS011;73424;49.994;8.184;2024-01-16T04:28:49;6.07;;;3.08;;
83487;SDS011;73424;49.994;8.184;2024-01-16T04:31:15;9.57;;;3.15;;
83487;SDS011;73424;49.994;8.184;2024-01-16T04:33:42;10.25;;;3.33;;
83487;SDS011;73424;49.994;8.184;2024-01-16T04:36:07;9.60;;;2.70;;
83487;SDS011;73424;49.994;8.184;2024-01-16T04:38:33;6.43;;;2.97;;
83487;SDS011;73424;49.994;8.184;2024-01-16T04:41:00;6.83;;;3.23;;
83487;SDS011;73424;49.994;8.184;2024-01-16T04:43:27;5.25;;;2.92;;
83487;SDS011;73424;49.994;8.184;2024-01-16T04:45:52;8.87;;;2.93;;
83487;SDS011;73424;49.994;8.184;2024-01-16T04:48:17;5.97;;;2.80;;
83487;SDS011;73424;49.994;8.184;2024-01-16T04:50:43;4.75;;;2.83;;
83487;SDS011;73424;49.994;8.184;2024-01-16T04:53:10;5.78;;;3.30;;
83487;SDS011;73424;49.994;8.184;2024-01-16T04:55:35;10.98;;;3.30;;
83487;SDS011;73424;49.994;8.184;2024-01-16T04:58:00;7.10;;;3.30;;
83487;SDS011;73424;49.994;8.184;2024-01-16T05:00:26;8.15;;;3.08;;
83487;SDS011;73424;49.994;8.184;2024-01-16T05:02:51;6.68;;;3.13;;
83487;SDS011;73424;49.994;8.184;2024-01-16T05:05:17;9.48;;;3.25;;
83487;SDS011;73424;49.994;8.184;2024-01-16T05:07:43;8.75;;;3.13;;
83487;SDS011;73424;49.994;8.184;2024-01-16T05:10:11;7.63;;;3.53;;
83487;SDS011;73424;49.994;8.184;2024-01-16T05:12:40;9.45;;;3.03;;
83487;SDS011;73424;49.994;8.184;2024-01-16T05:15:06;8.70;;;3.40;;
83487;SDS011;73424;49.994;8.184;2024-01-16T05:17:32;6.80;;;3.92;;
83487;SDS011;73424;49.994;8.184;2024-01-16T05:19:57;7.32;;;4.38;;
83487;SDS011;73424;49.994;8.184;2024-01-16T05:22:23;7.82;;;3.65;;
83487;SDS011;73424;49.994;8.184;2024-01-16T05:24:48;9.83;;;3.57;;
83487;SDS011;73424;49.994;8.184;2024-01-16T05:27:13;7.27;;;3.20;;
83487;SDS011;73424;49.994;8.184;2024-01-16T05:29:42;7.32;;;2.95;;
83487;SDS011;73424;49.994;8.184;2024-01-16T05:32:07;9.30;;;3.78;;
83487;SDS011;73424;49.994;8.184;2024-01-16T05:34:33;6.32;;;2.92;;
83487;SDS011;73424;49.994;8.184;2024-01-16T05:36:58;15.37;;;4.20;;
83487;SDS011;73424;49.994;8.184;2024-01-16T05:39:23;6.57;;;3.23;;
83487;SDS011;73424;49.994;8.184;2024-01-16T05:41:49;7.88;;;3.15;;
83487;SDS011;73424;49.994;8.184;2024-01-16T05:44:14;7.93;;;3.35;;
83487;SDS011;73424;49.994;8.184;2024-01-16T05:46:40;6.57;;;3.33;;
83487;SDS011;73424;49.994;8.184;2024-01-16T05:49:06;5.43;;;3.05;;
83487;SDS011;73424;49.994;8.184;2024-01-16T05:51:31;7.90;;;3.53;;
83487;SDS011;73424;49.994;8.184;2024-01-16T05:53:56;7.20;;;2.85;;
83487;SDS011;73424;49.994;8.184;2024-01-16T05:56:22;6.75;;;2.80;;
83487;SDS011;73424;49.994;8.184;2024-01-16T05:58:47;7.40;;;2.47;;
83487;SDS011;73424;49.994;8.184;2024-01-16T06:01:12;7.90;;;3.20;;
83487;SDS011;73424;49.994;8.184;2024-01-16T06:03:41;4.82;;;3.20;;
83487;SDS011;73424;49.994;8.184;2024-01-16T06:06:07;6.90;;;3.15;;
83487;SDS011;73424;49.994;8.184;2024-01-16T06:08:32;9.32;;;3.00;;
83487;SDS011;73424;49.994;8.184;2024-01-16T06:10:58;8.27;;;3.10;;
83487;SDS011;73424;49.994;8.184;2024-01-16T06:13:24;5.47;;;3.05;;
83487;SDS011;73424;49.994;8.184;2024-01-16T06:15:49;10.60;;;3.97;;
83487;SDS011;73424;49.994;8.184;2024-01-16T06:18:14;6.57;;;2.90;;
83487;SDS011;73424;49.994;8.184;2024-01-16T06:20:39;4.47;;;2.93;;
83487;SDS011;73424;49.994;8.184;2024-01-16T06:23:06;7.00;;;4.03;;
83487;SDS011;73424;49.994;8.184;2024-01-16T06:25:31;6.97;;;3.45;;
83487;SDS011;73424;49.994;8.184;2024-01-16T06:27:56;8.60;;;3.40;;
83487;SDS011;73424;49.994;8.184;2024-01-16T06:30:22;6.53;;;3.13;;
83487;SDS011;73424;49.994;8.184;2024-01-16T06:32:48;6.22;;;3.47;;
83487;SDS011;73424;49.994;8.184;2024-01-16T06:35:14;9.80;;;4.13;;
83487;SDS011;73424;49.994;8.184;2024-01-16T06:37:40;7.57;;;3.33;;
83487;SDS011;73424;49.994;8.184;2024-01-16T06:40:06;7.25;;;3.75;;
83487;SDS011;73424;49.994;8.184;2024-01-16T06:42:31;8.57;;;3.53;;
83487;SDS011;73424;49.994;8.184;2024-01-16T06:44:57;6.53;;;2.87;;
83487;SDS011;73424;49.994;8.184;2024-01-16T06:47:22;9.00;;;3.97;;
83487;SDS011;73424;49.994;8.184;2024-01-16T06:49:48;8.27;;;3.72;;
83487;SDS011;73424;49.994;8.184;2024-01-16T06:52:14;10.32;;;4.10;;
83487;SDS011;73424;49.994;8.184;2024-01-16T06:54:39;6.60;;;3.58;;
83487;SDS011;73424;49.994;8.184;2024-01-16T06:57:05;8.32;;;3.45;;
83487;SDS011;73424;49.994;8.184;2024-01-16T06:59:30;6.25;;;3.65;;
83487;SDS011;73424;49.994;8.184;2024-01-16T07:01:55;8.63;;;3.83;;
83487;SDS011;73424;49.994;8.184;2024-01-16T07:04:21;7.77;;;4.00;;
83487;SDS011;73424;49.994;8.184;2024-01-16T07:06:46;6.45;;;4.45;;
83487;SDS011;73424;49.994;8.184;2024-01-16T07:09:12;9.75;;;4.30;;
83487;SDS011;73424;49.994;8.184;2024-01-16T07:11:38;7.60;;;4.10;;
83487;SDS011;73424;49.994;8.184;2024-01-16T07:14:07;7.10;;;3.75;;
83487;SDS011;73424;49.994;8.184;2024-01-16T07:16:34;7.53;;;3.33;;
83487;SDS011;73424;49.994;8.184;2024-01-16T07:18:59;8.30;;;3.72;;
83487;SDS011;73424;49.994;8.184;2024-01-16T07:21:24;7.72;;;4.53;;
83487;SDS011;73424;49.994;8.184;2024-01-16T07:23:50;9.10;;;3.90;;
83487;SDS011;73424;49.994;8.184;2024-01-16T07:26:15;7.30;;;3.63;;
83487;SDS011;73424;49.994;8.184;2024-01-16T07:28:41;6.53;;;4.13;;
83487;SDS011;73424;49.994;8.184;2024-01-16T07:31:07;6.05;;;3.25;;
83487;SDS011;73424;49.994;8.184;2024-01-16T07:33:34;7.30;;;3.03;;
83487;SDS011;73424;49.994;8.184;2024-01-16T07:35:59;8.32;;;4.07;;
83487;SDS011;73424;49.994;8.184;2024-01-16T07:38:25;6.88;;;3.92;;
83487;SDS011;73424;49.994;8.184;2024-01-16T07:40:50;9.60;;;3.80;;
83487;SDS011;73424;49.994;8.184;2024-01-16T07:43:15;9.57;;;4.07;;
83487;SDS011;73424;49.994;8.184;2024-01-16T07:45:41;9.43;;;4.50;;
83487;SDS011;73424;49.994;8.184;2024-01-16T07:48:06;11.82;;;4.15;;
83487;SDS011;73424;49.994;8.184;2024-01-16T07:50:31;10.10;;;4.28;;
83487;SDS011;73424;49.994;8.184;2024-01-16T07:52:56;9.52;;;3.80;;
83487;SDS011;73424;49.994;8.184;2024-01-16T07:55:22;10.17;;;3.83;;
83487;SDS011;73424;49.994;8.184;2024-01-16T07:57:47;10.15;;;3.80;;
83487;SDS011;73424;49.994;8.184;2024-01-16T08:00:12;6.95;;;4.65;;
83487;SDS011;73424;49.994;8.184;2024-01-16T08:02:38;10.05;;;4.70;;
83487;SDS011;73424;49.994;8.184;2024-01-16T08:05:04;9.50;;;4.93;;
83487;SDS011;73424;49.994;8.184;2024-01-16T08:07:30;10.07;;;4.22;;
83487;SDS011;73424;49.994;8.184;2024-01-16T08:09:55;8.00;;;3.75;;
83487;SDS011;73424;49.994;8.184;2024-01-16T08:12:21;8.02;;;3.85;;
83487;SDS011;73424;49.994;8.184;2024-01-16T08:14:46;6.82;;;3.40;;
83487;SDS011;73424;49.994;8.184;2024-01-16T08:17:12;6.20;;;3.47;;
83487;SDS011;73424;49.994;8.184;2024-01-16T08:19:37;8.32;;;3.85;;
83487;SDS011;73424;49.994;8.184;2024-01-16T08:22:03;9.02;;;3.70;;
83487;SDS011;73424;49.994;8.184;2024-01-16T08:24:29;7.47;;;3.80;;
83487;SDS011;73424;49.994;8.184;2024-01-16T08:26:54;7.10;;;3.90;;
83487;SDS011;73424;49.994;8.184;2024-01-16T08:29:22;7.75;;;3.63;;
83487;SDS011;73424;49.994;8.184;2024-01-16T08:31:47;8.15;;;4.82;;
83487;SDS011;73424;49.994;8.184;2024-01-16T08:34:13;9.37;;;4.17;;
83487;SDS011;73424;49.994;8.184;2024-01-16T08:36:38;9.90;;;4.10;;
83487;SDS011;73424;49.994;8.184;2024-01-16T08:39:03;7.43;;;3.83;;
83487;SDS011;73424;49.994;8.184;2024-01-16T08:41:28;8.47;;;4.23;;
83487;SDS011;73424;49.994;8.184;2024-01-16T08:43:54;12.52;;;4.95;;
83487;SDS011;73424;49.994;8.184;2024-01-16T08:46:19;7.10;;;4.13;;
83487;SDS011;73424;49.994;8.184;2024-01-16T08:48:45;5.63;;;3.67;;
83487;SDS011;73424;49.994;8.184;2024-01-16T08:51:11;9.15;;;3.38;;
83487;SDS011;73424;49.994;8.184;2024-01-16T08:53:37;8.57;;;3.97;;
83487;SDS011;73424;49.994;8.184;2024-01-16T08:56:02;5.55;;;2.88;;
83487;SDS011;73424;49.994;8.184;2024-01-16T08:58:31;6.88;;;3.38;;
83487;SDS011;73424;49.994;8.184;2024-01-16T09:01:00;8.35;;;3.47;;
83487;SDS011;73424;49.994;8.184;2024-01-16T09:03:25;8.70;;;3.83;;
83487;SDS011;73424;49.994;8.184;2024-01-16T09:05:51;9.60;;;3.87;;
83487;SDS011;73424;49.994;8.184;2024-01-16T09:08:16;7.40;;;3.60;;
83487;SDS011;73424;49.994;8.184;2024-01-16T09:10:41;6.30;;;2.97;;
83487;SDS011;73424;49.994;8.184;2024-01-16T09:13:06;6.27;;;3.43;;
83487;SDS011;73424;49.994;8.184;2024-01-16T09:15:32;7.37;;;3.20;;
83487;SDS011;73424;49.994;8.184;2024-01-16T09:17:57;5.73;;;2.60;;
83487;SDS011;73424;49.994;8.184;2024-01-16T09:20:22;6.37;;;3.70;;
83487;SDS011;73424;49.994;8.184;2024-01-16T09:22:48;6.43;;;3.10;;
83487;SDS011;73424;49.994;8.184;2024-01-16T09:25:14;10.13;;;4.97;;
83487;SDS011;73424;49.994;8.184;2024-01-16T09:27:39;6.72;;;3.78;;
83487;SDS011;73424;49.994;8.184;2024-01-16T09:30:05;9.47;;;4.00;;
83487;SDS011;73424;49.994;8.184;2024-01-16T09:32:30;7.30;;;5.18;;
83487;SDS011;73424;49.994;8.184;2024-01-16T09:34:55;7.77;;;3.87;;
83487;SDS011;73424;49.994;8.184;2024-01-16T09:37:23;6.68;;;3.63;;
83487;SDS011;73424;49.994;8.184;2024-01-16T09:39:48;8.77;;;4.28;;
83487;SDS011;73424;49.994;8.184;2024-01-16T09:42:15;8.60;;;4.07;;
83487;SDS011;73424;49.994;8.184;2024-01-16T09:44:41;9.65;;;4.50;;
83487;SDS011;73424;49.994;8.184;2024-01-16T09:47:07;7.18;;;3.90;;
83487;SDS011;73424;49.994;8.184;2024-01-16T09:49:36;8.90;;;4.63;;
83487;SDS011;73424;49.994;8.184;2024-01-16T09:52:01;9.32;;;4.50;;
83487;SDS011;73424;49.994;8.184;2024-01-16T09:54:27;11.57;;;4.65;;
83487;SDS011;73424;49.994;8.184;2024-01-16T09:56:53;7.05;;;4.70;;
83487;SDS011;73424;49.994;8.184;2024-01-16T09:59:21;9.07;;;4.90;;
83487;SDS011;73424;49.994;8.184;2024-01-16T10:01:48;9.88;;;5.22;;
83487;SDS011;73424;49.994;8.184;2024-01-16T10:04:15;8.40;;;4.15;;
83487;SDS011;73424;49.994;8.184;2024-01-16T10:06:40;9.45;;;4.03;;
83487;SDS011;73424;49.994;8.184;2024-01-16T10:09:10;8.65;;;4.40;;
83487;SDS011;73424;49.994;8.184;2024-01-16T10:11:37;9.48;;;4.45;;
83487;SDS011;73424;49.994;8.184;2024-01-16T10:14:03;9.77;;;4.38;;
83487;SDS011;73424;49.994;8.184;2024-01-16T10:19:27;12.95;;;5.00;;
83487;SDS011;73424;49.994;8.184;2024-01-16T10:21:52;8.02;;;4.40;;
83487;SDS011;73424;49.994;8.184;2024-01-16T10:24:29;8.75;;;4.68;;
83487;SDS011;73424;49.994;8.184;2024-01-16T10:26:58;10.57;;;4.28;;
83487;SDS011;73424;49.994;8.184;2024-01-16T10:29:31;8.50;;;3.72;;
83487;SDS011;73424;49.994;8.184;2024-01-16T10:31:57;9.10;;;4.38;;
83487;SDS011;73424;49.994;8.184;2024-01-16T10:34:23;8.65;;;4.28;;
83487;SDS011;73424;49.994;8.184;2024-01-16T10:36:49;8.50;;;4.22;;
83487;SDS011;73424;49.994;8.184;2024-01-16T10:39:16;7.68;;;3.75;;
83487;SDS011;73424;49.994;8.184;2024-01-16T10:41:41;6.30;;;3.42;;
83487;SDS011;73424;49.994;8.184;2024-01-16T10:44:07;6.13;;;3.50;;
83487;SDS011;73424;49.994;8.184;2024-01-16T10:46:33;6.72;;;3.35;;
83487;SDS011;73424;49.994;8.184;2024-01-16T10:49:00;6.95;;;3.55;;
83487;SDS011;73424;49.994;8.184;2024-01-16T10:51:27;11.05;;;3.85;;
83487;SDS011;73424;49.994;8.184;2024-01-16T10:54:02;6.63;;;3.83;;
83487;SDS011;73424;49.994;8.184;2024-01-16T10:56:33;8.38;;;4.38;;
83487;SDS011;73424;49.994;8.184;2024-01-16T10:59:06;9.07;;;3.95;;
83487;SDS011;73424;49.994;8.184;2024-01-16T11:01:42;9.80;;;3.80;;
83487;SDS011;73424;49.994;8.184;2024-01-16T11:04:10;6.35;;;3.28;;
83487;SDS011;73424;49.994;8.184;2024-01-16T11:06:37;9.25;;;3.70;;
83487;SDS011;73424;49.994;8.184;2024-01-16T11:09:04;8.75;;;3.78;;
83487;SDS011;73424;49.994;8.184;2024-01-16T11:11:29;6.97;;;3.60;;
83487;SDS011;73424;49.994;8.184;2024-01-16T11:13:55;6.80;;;4.88;;
83487;SDS011;73424;49.994;8.184;2024-01-16T11:16:22;10.82;;;5.35;;
83487;SDS011;73424;49.994;8.184;2024-01-16T11:18:48;8.75;;;4.03;;
83487;SDS011;73424;49.994;8.184;2024-01-16T11:21:13;7.53;;;3.87;;
83487;SDS011;73424;49.994;8.184;2024-01-16T11:23:39;7.13;;;3.65;;
83487;SDS011;73424;49.994;8.184;2024-01-16T11:28:50;7.10;;;3.30;;
83487;SDS011;73424;49.994;8.184;2024-01-16T11:31:27;8.55;;;3.28;;
83487;SDS011;73424;49.994;8.184;2024-01-16T11:33:54;7.40;;;3.10;;
83487;SDS011;73424;49.994;8.184;2024-01-16T11:39:23;5.85;;;2.50;;
83487;SDS011;73424;49.994;8.184;2024-01-16T11:41:52;4.65;;;2.63;;
83487;SDS011;73424;49.994;8.184;2024-01-16T11:47:07;7.45;;;2.95;;
83487;SDS011;73424;49.994;8.184;2024-01-16T11:49:34;5.68;;;2.55;;
83487;SDS011;73424;49.994;8.184;2024-01-16T11:52:00;6.88;;;2.78;;
83487;SDS011;73424;49.994;8.184;2024-01-16T11:54:25;4.53;;;2.75;;
83487;SDS011;73424;49.994;8.184;2024-01-16T11:56:58;6.47;;;2.33;;
83487;SDS011;73424;49.994;8.184;2024-01-16T11:59:42;6.32;;;2.95;;
83487;SDS011;73424;49.994;8.184;2024-01-16T12:02:21;5.15;;;2.50;;
83487;SDS011;73424;49.994;8.184;2024-01-16T12:04:52;5.55;;;1.98;;
83487;SDS011;73424;49.994;8.184;2024-01-16T12:07:22;9.15;;;2.33;;
83487;SDS011;73424;49.994;8.184;2024-01-16T12:09:47;7.40;;;2.45;;
83487;SDS011;73424;49.994;8.184;2024-01-16T12:12:14;5.55;;;2.45;;
83487;SDS011;73424;49.994;8.184;2024-01-16T12:14:40;7.82;;;3.35;;
83487;SDS011;73424;49.994;8.184;2024-01-16T12:17:12;6.07;;;2.63;;
83487;SDS011;73424;49.994;8.184;2024-01-16T12:19:38;6.03;;;2.25;;
83487;SDS011;73424;49.994;8.184;2024-01-16T12:22:08;6.75;;;2.42;;
83487;SDS011;73424;49.994;8.184;2024-01-16T12:24:35;3.05;;;1.90;;
83487;SDS011;73424;49.994;8.184;2024-01-16T12:27:01;8.57;;;2.88;;
83487;SDS011;73424;49.994;8.184;2024-01-16T12:29:26;7.40;;;2.40;;
83487;SDS011;73424;49.994;8.184;2024-01-16T12:32:04;5.93;;;2.30;;
83487;SDS011;73424;49.994;8.184;2024-01-16T12:34:32;9.23;;;2.53;;
83487;SDS011;73424;49.994;8.184;2024-01-16T12:37:04;5.50;;;2.13;;
83487;SDS011;73424;49.994;8.184;2024-01-16T12:39:31;5.20;;;3.05;;
83487;SDS011;73424;49.994;8.184;2024-01-16T12:41:57;5.20;;;2.35;;
83487;SDS011;73424;49.994;8.184;2024-01-16T12:44:26;6.70;;;2.70;;
83487;SDS011;73424;49.994;8.184;2024-01-16T12:49:21;6.95;;;2.40;;
83487;SDS011;73424;49.994;8.184;2024-01-16T12:51:47;6.25;;;2.50;;
83487;SDS011;73424;49.994;8.184;2024-01-16T12:54:14;5.55;;;2.38;;
83487;SDS011;73424;49.994;8.184;2024-01-16T12:56:41;9.10;;;2.45;;
83487;SDS011;73424;49.994;8.184;2024-01-16T12:59:13;6.32;;;2.45;;
83487;SDS011;73424;49.994;8.184;2024-01-16T13:01:39;4.57;;;2.63;;
83487;SDS011;73424;49.994;8.184;2024-01-16T13:06:34;4.15;;;1.98;;
83487;SDS011;73424;49.994;8.184;2024-01-16T13:09:06;10.07;;;2.72;;
83487;SDS011;73424;49.994;8.184;2024-01-16T13:14:16;3.90;;;2.03;;
83487;SDS011;73424;49.994;8.184;2024-01-16T13:16:41;6.63;;;2.88;;
83487;SDS011;73424;49.994;8.184;2024-01-16T13:19:06;6.80;;;1.90;;
83487;SDS011;73424;49.994;8.184;2024-01-16T13:21:35;7.03;;;2.63;;
83487;SDS011;73424;49.994;8.184;2024-01-16T13:24:02;5.75;;;2.10;;
83487;SDS011;73424;49.994;8.184;2024-01-16T13:26:30;5.97;;;2.53;;
83487;SDS011;73424;49.994;8.184;2024-01-16T13:28:57;5.30;;;2.38;;
83487;SDS011;73424;49.994;8.184;2024-01-16T13:31:22;4.10;;;2.57;;
83487;SDS011;73424;49.994;8.184;2024-01-16T13:33:47;7.33;;;1.80;;
83487;SDS011;73424;49.994;8.184;2024-01-16T13:36:12;5.53;;;2.60;;
83487;SDS011;73424;49.994;8.184;2024-01-16T13:38:38;10.35;;;2.30;;
83487;SDS011;73424;49.994;8.184;2024-01-16T13:41:03;4.27;;;2.33;;
83487;SDS011;73424;49.994;8.184;2024-01-16T13:43:28;4.37;;;1.67;;
83487;SDS011;73424;49.994;8.184;2024-01-16T13:45:54;7.70;;;2.10;;
83487;SDS011;73424;49.994;8.184;2024-01-16T13:48:20;3.25;;;1.60;;
83487;SDS011;73424;49.994;8.184;2024-01-16T13:50:46;4.45;;;1.83;;
83487;SDS011;73424;49.994;8.184;2024-01-16T13:53:11;4.68;;;1.60;;
83487;SDS011;73424;49.994;8.184;2024-01-16T13:55:39;5.97;;;2.25;;
83487;SDS011;73424;49.994;8.184;2024-01-16T13:58:06;5.00;;;2.20;;
83487;SDS011;73424;49.994;8.184;2024-01-16T14:00:31;6.65;;;2.28;;
83487;SDS011;73424;49.994;8.184;2024-01-16T14:02:56;5.57;;;2.27;;
83487;SDS011;73424;49.994;8.184;2024-01-16T14:05:21;4.87;;;2.17;;
83487;SDS011;73424;49.994;8.184;2024-01-16T14:07:48;5.60;;;2.17;;
83487;SDS011;73424;49.994;8.184;2024-01-16T14:10:18;5.68;;;1.83;;
83487;SDS011;73424;49.994;8.184;2024-01-16T14:12:47;3.97;;;2.03;;
83487;SDS011;73424;49.994;8.184;2024-01-16T14:15:15;7.13;;;2.15;;
83487;SDS011;73424;49.994;8.184;2024-01-16T14:20:17;4.53;;;2.55;;
83487;SDS011;73424;49.994;8.184;2024-01-16T14:22:46;3.78;;;1.90;;
83487;SDS011;73424;49.994;8.184;2024-01-16T14:25:11;3.40;;;1.50;;
83487;SDS011;73424;49.994;8.184;2024-01-16T14:27:38;7.60;;;2.05;;
83487;SDS011;73424;49.994;8.184;2024-01-16T14:30:07;4.55;;;1.88;;
83487;SDS011;73424;49.994;8.184;2024-01-16T14:32:35;5.28;;;1.92;;
83487;SDS011;73424;49.994;8.184;2024-01-16T14:35:02;4.40;;;1.77;;
83487;SDS011;73424;49.994;8.184;2024-01-16T14:37:29;4.95;;;2.03;;
83487;SDS011;73424;49.994;8.184;2024-01-16T14:39:55;4.85;;;1.65;;
83487;SDS011;73424;49.994;8.184;2024-01-16T14:42:20;7.67;;;2.30;;
83487;SDS011;73424;49.994;8.184;2024-01-16T14:44:47;5.03;;;2.08;;
83487;SDS011;73424;49.994;8.184;2024-01-16T14:47:12;5.72;;;2.42;;
83487;SDS011;73424;49.994;8.184;2024-01-16T14:49:38;5.25;;;1.75;;
83487;SDS011;73424;49.994;8.184;2024-01-16T14:52:03;4.43;;;1.23;;
83487;SDS011;73424;49.994;8.184;2024-01-16T14:54:29;5.10;;;1.55;;
83487;SDS011;73424;49.994;8.184;2024-01-16T14:56:54;5.40;;;1.90;;
83487;SDS011;73424;49.994;8.184;2024-01-16T14:59:19;7.18;;;2.00;;
83487;SDS011;73424;49.994;8.184;2024-01-16T15:01:45;3.83;;;1.80;;